sensor_id;sensor_type;location;lat;lon;timestamp;P1;durP1;ratioP1;P2;durP2;ratioP2
37527;SDS011;23372;52.050;4.810;2023-06-10T00:01:14;15.40;;;9.10;;
37527;SDS011;23372;52.050;4.810;2023-06-10T00:03:40;11.52;;;9.13;;
37527;SDS011;23372;52.050;4.810;2023-06-10T00:06:06;12.27;;;9.35;;
37527;SDS011;23372;52.050;4.810;2023-06-10T00:08:31;12.00;;;9.95;;
37527;SDS011;23372;52.050;4.810;2023-06-10T00:10:58;11.90;;;9.77;;
37527;SDS011;23372;52.050;4.810;2023-06-10T00:13:23;13.85;;;9.20;;
37527;SDS011;23372;52.050;4.810;2023-06-10T00:15:50;10.98;;;9.07;;
37527;SDS011;23372;52.050;4.810;2023-06-10T00:18:22;14.15;;;8.85;;
37527;SDS011;23372;52.050;4.810;2023-06-10T00:20:47;11.90;;;9.80;;
37527;SDS011;23372;52.050;4.810;2023-06-10T00:23:18;9.98;;;8.95;;
37527;SDS011;23372;52.050;4.810;2023-06-10T00:25:43;14.50;;;9.25;;
37527;SDS011;23372;52.050;4.810;2023-06-10T00:28:09;13.35;;;9.27;;
37527;SDS011;23372;52.050;4.810;2023-06-10T00:30:35;14.15;;;9.10;;
37527;SDS011;23372;52.050;4.810;2023-06-10T00:33:00;13.88;;;10.07;;
37527;SDS011;23372;52.050;4.810;2023-06-10T00:35:26;13.35;;;9.45;;
37527;SDS011;23372;52.050;4.810;2023-06-10T00:37:51;13.02;;;10.77;;
37527;SDS011;23372;52.050;4.810;2023-06-10T00:40:17;12.48;;;9.25;;
37527;SDS011;23372;52.050;4.810;2023-06-10T00:42:42;19.88;;;9.52;;
37527;SDS011;23372;52.050;4.810;2023-06-10T00:45:08;13.52;;;8.93;;
37527;SDS011;23372;52.050;4.810;2023-06-10T00:47:34;13.80;;;8.73;;
37527;SDS011;23372;52.050;4.810;2023-06-10T00:50:00;12.02;;;8.80;;
37527;SDS011;23372;52.050;4.810;2023-06-10T00:52:28;16.23;;;9.23;;
37527;SDS011;23372;52.050;4.810;2023-06-10T00:54:55;11.77;;;9.10;;
37527;SDS011;23372;52.050;4.810;2023-06-10T00:57:21;14.32;;;9.55;;
37527;SDS011;23372;52.050;4.810;2023-06-10T00:59:47;14.27;;;7.88;;
37527;SDS011;23372;52.050;4.810;2023-06-10T01:02:14;13.43;;;8.40;;
37527;SDS011;23372;52.050;4.810;2023-06-10T01:04:39;14.68;;;8.35;;
37527;SDS011;23372;52.050;4.810;2023-06-10T01:07:17;13.05;;;8.48;;
37527;SDS011;23372;52.050;4.810;2023-06-10T01:09:55;9.25;;;7.90;;
37527;SDS011;23372;52.050;4.810;2023-06-10T01:15:01;10.35;;;8.27;;
37527;SDS011;23372;52.050;4.810;2023-06-10T01:17:28;13.30;;;7.80;;
37527;SDS011;23372;52.050;4.810;2023-06-10T01:19:55;14.75;;;8.27;;
37527;SDS011;23372;52.050;4.810;2023-06-10T01:22:25;11.13;;;8.32;;
37527;SDS011;23372;52.050;4.810;2023-06-10T01:24:57;12.32;;;8.27;;
37527;SDS011;23372;52.050;4.810;2023-06-10T01:27:23;10.95;;;7.78;;
37527;SDS011;23372;52.050;4.810;2023-06-10T01:30:04;8.90;;;7.30;;
37527;SDS011;23372;52.050;4.810;2023-06-10T01:32:47;12.30;;;8.13;;
37527;SDS011;23372;52.050;4.810;2023-06-10T01:35:15;12.95;;;7.63;;
37527;SDS011;23372;52.050;4.810;2023-06-10T01:37:42;11.55;;;7.85;;
37527;SDS011;23372;52.050;4.810;2023-06-10T01:40:11;10.95;;;7.90;;
37527;SDS011;23372;52.050;4.810;2023-06-10T01:42:38;10.93;;;7.55;;
37527;SDS011;23372;52.050;4.810;2023-06-10T01:45:04;10.27;;;7.43;;
37527;SDS011;23372;52.050;4.810;2023-06-10T01:47:30;10.25;;;7.63;;
37527;SDS011;23372;52.050;4.810;2023-06-10T01:49:56;11.07;;;7.38;;
37527;SDS011;23372;52.050;4.810;2023-06-10T01:52:21;10.80;;;7.30;;
37527;SDS011;23372;52.050;4.810;2023-06-10T01:54:47;9.80;;;7.60;;
37527;SDS011;23372;52.050;4.810;2023-06-10T01:57:13;9.77;;;7.60;;
37527;SDS011;23372;52.050;4.810;2023-06-10T01:59:38;16.58;;;7.30;;
37527;SDS011;23372;52.050;4.810;2023-06-10T02:02:04;13.57;;;7.53;;
37527;SDS011;23372;52.050;4.810;2023-06-10T02:04:30;12.48;;;7.47;;
37527;SDS011;23372;52.050;4.810;2023-06-10T02:06:56;12.32;;;7.10;;
37527;SDS011;23372;52.050;4.810;2023-06-10T02:09:21;11.45;;;7.22;;
37527;SDS011;23372;52.050;4.810;2023-06-10T02:11:47;9.55;;;6.80;;
37527;SDS011;23372;52.050;4.810;2023-06-10T02:14:13;10.10;;;6.60;;
37527;SDS011;23372;52.050;4.810;2023-06-10T02:16:39;10.00;;;6.90;;
37527;SDS011;23372;52.050;4.810;2023-06-10T02:19:05;15.65;;;7.47;;
37527;SDS011;23372;52.050;4.810;2023-06-10T02:21:31;13.93;;;7.82;;
37527;SDS011;23372;52.050;4.810;2023-06-10T02:23:57;10.85;;;7.18;;
37527;SDS011;23372;52.050;4.810;2023-06-10T02:26:23;11.45;;;7.38;;
37527;SDS011;23372;52.050;4.810;2023-06-10T02:28:51;11.73;;;7.07;;
37527;SDS011;23372;52.050;4.810;2023-06-10T02:31:16;16.15;;;7.72;;
37527;SDS011;23372;52.050;4.810;2023-06-10T02:33:42;10.30;;;6.53;;
37527;SDS011;23372;52.050;4.810;2023-06-10T02:36:09;13.30;;;7.38;;
37527;SDS011;23372;52.050;4.810;2023-06-10T02:38:38;8.73;;;6.82;;
37527;SDS011;23372;52.050;4.810;2023-06-10T02:41:05;12.63;;;6.65;;
37527;SDS011;23372;52.050;4.810;2023-06-10T02:43:31;10.95;;;7.07;;
37527;SDS011;23372;52.050;4.810;2023-06-10T02:45:56;12.50;;;6.82;;
37527;SDS011;23372;52.050;4.810;2023-06-10T02:48:23;10.75;;;7.20;;
37527;SDS011;23372;52.050;4.810;2023-06-10T02:50:49;13.40;;;6.35;;
37527;SDS011;23372;52.050;4.810;2023-06-10T02:53:15;11.52;;;6.82;;
37527;SDS011;23372;52.050;4.810;2023-06-10T02:55:41;11.43;;;6.25;;
37527;SDS011;23372;52.050;4.810;2023-06-10T02:58:07;17.02;;;7.00;;
37527;SDS011;23372;52.050;4.810;2023-06-10T03:00:33;8.43;;;6.32;;
37527;SDS011;23372;52.050;4.810;2023-06-10T03:02:59;14.73;;;6.60;;
37527;SDS011;23372;52.050;4.810;2023-06-10T03:05:27;13.93;;;7.35;;
37527;SDS011;23372;52.050;4.810;2023-06-10T03:07:53;11.80;;;7.10;;
37527;SDS011;23372;52.050;4.810;2023-06-10T03:10:19;16.67;;;6.43;;
37527;SDS011;23372;52.050;4.810;2023-06-10T03:12:44;18.15;;;6.78;;
37527;SDS011;23372;52.050;4.810;2023-06-10T03:15:10;13.80;;;6.70;;
37527;SDS011;23372;52.050;4.810;2023-06-10T03:17:35;14.52;;;7.20;;
37527;SDS011;23372;52.050;4.810;2023-06-10T03:20:01;11.02;;;6.38;;
37527;SDS011;23372;52.050;4.810;2023-06-10T03:22:30;13.27;;;6.57;;
37527;SDS011;23372;52.050;4.810;2023-06-10T03:24:56;13.48;;;7.03;;
37527;SDS011;23372;52.050;4.810;2023-06-10T03:27:22;11.30;;;7.10;;
37527;SDS011;23372;52.050;4.810;2023-06-10T03:29:48;11.93;;;7.20;;
37527;SDS011;23372;52.050;4.810;2023-06-10T03:32:13;20.85;;;6.88;;
37527;SDS011;23372;52.050;4.810;2023-06-10T03:34:40;15.32;;;6.78;;
37527;SDS011;23372;52.050;4.810;2023-06-10T03:37:05;11.27;;;6.60;;
37527;SDS011;23372;52.050;4.810;2023-06-10T03:39:32;10.75;;;6.30;;
37527;SDS011;23372;52.050;4.810;2023-06-10T03:41:57;13.82;;;5.68;;
37527;SDS011;23372;52.050;4.810;2023-06-10T03:44:24;16.42;;;6.40;;
37527;SDS011;23372;52.050;4.810;2023-06-10T03:46:51;12.63;;;6.30;;
37527;SDS011;23372;52.050;4.810;2023-06-10T03:49:17;10.80;;;5.97;;
37527;SDS011;23372;52.050;4.810;2023-06-10T03:51:42;9.57;;;5.65;;
37527;SDS011;23372;52.050;4.810;2023-06-10T03:54:08;15.15;;;6.40;;
37527;SDS011;23372;52.050;4.810;2023-06-10T03:56:34;13.85;;;6.43;;
37527;SDS011;23372;52.050;4.810;2023-06-10T03:59:00;14.00;;;6.40;;
37527;SDS011;23372;52.050;4.810;2023-06-10T04:01:25;15.60;;;6.45;;
37527;SDS011;23372;52.050;4.810;2023-06-10T04:03:52;9.57;;;6.47;;
37527;SDS011;23372;52.050;4.810;2023-06-10T04:06:19;13.00;;;6.53;;
37527;SDS011;23372;52.050;4.810;2023-06-10T04:08:45;14.98;;;6.40;;
37527;SDS011;23372;52.050;4.810;2023-06-10T04:11:11;10.88;;;6.57;;
37527;SDS011;23372;52.050;4.810;2023-06-10T04:13:36;10.45;;;6.30;;
37527;SDS011;23372;52.050;4.810;2023-06-10T04:16:02;8.73;;;5.82;;
37527;SDS011;23372;52.050;4.810;2023-06-10T04:18:28;12.00;;;6.57;;
37527;SDS011;23372;52.050;4.810;2023-06-10T04:20:54;12.32;;;6.82;;
37527;SDS011;23372;52.050;4.810;2023-06-10T04:23:20;10.88;;;6.93;;
37527;SDS011;23372;52.050;4.810;2023-06-10T04:25:46;9.88;;;6.00;;
37527;SDS011;23372;52.050;4.810;2023-06-10T04:28:11;13.75;;;5.70;;
37527;SDS011;23372;52.050;4.810;2023-06-10T04:30:37;12.02;;;6.18;;
37527;SDS011;23372;52.050;4.810;2023-06-10T04:33:03;11.23;;;6.68;;
37527;SDS011;23372;52.050;4.810;2023-06-10T04:35:31;18.15;;;6.63;;
37527;SDS011;23372;52.050;4.810;2023-06-10T04:37:57;10.50;;;6.40;;
37527;SDS011;23372;52.050;4.810;2023-06-10T04:40:23;13.73;;;6.38;;
37527;SDS011;23372;52.050;4.810;2023-06-10T04:42:48;10.50;;;6.65;;
37527;SDS011;23372;52.050;4.810;2023-06-10T04:45:14;13.88;;;6.68;;
37527;SDS011;23372;52.050;4.810;2023-06-10T04:47:40;12.40;;;6.80;;
37527;SDS011;23372;52.050;4.810;2023-06-10T04:50:05;10.52;;;6.25;;
37527;SDS011;23372;52.050;4.810;2023-06-10T04:52:31;19.52;;;6.45;;
37527;SDS011;23372;52.050;4.810;2023-06-10T04:54:58;15.27;;;6.13;;
37527;SDS011;23372;52.050;4.810;2023-06-10T04:57:24;12.13;;;6.22;;
37527;SDS011;23372;52.050;4.810;2023-06-10T04:59:51;10.32;;;6.53;;
37527;SDS011;23372;52.050;4.810;2023-06-10T05:02:17;9.15;;;5.78;;
37527;SDS011;23372;52.050;4.810;2023-06-10T05:04:42;12.00;;;6.70;;
37527;SDS011;23372;52.050;4.810;2023-06-10T05:07:08;10.65;;;6.57;;
37527;SDS011;23372;52.050;4.810;2023-06-10T05:09:34;11.52;;;6.82;;
37527;SDS011;23372;52.050;4.810;2023-06-10T05:11:59;8.68;;;6.00;;
37527;SDS011;23372;52.050;4.810;2023-06-10T05:14:25;12.57;;;6.55;;
37527;SDS011;23372;52.050;4.810;2023-06-10T05:16:50;9.82;;;6.75;;
37527;SDS011;23372;52.050;4.810;2023-06-10T05:19:16;14.65;;;6.15;;
37527;SDS011;23372;52.050;4.810;2023-06-10T05:21:42;14.88;;;6.47;;
37527;SDS011;23372;52.050;4.810;2023-06-10T05:24:09;11.55;;;6.65;;
37527;SDS011;23372;52.050;4.810;2023-06-10T05:26:35;11.00;;;7.07;;
37527;SDS011;23372;52.050;4.810;2023-06-10T05:29:03;15.18;;;6.72;;
37527;SDS011;23372;52.050;4.810;2023-06-10T05:31:30;10.60;;;6.32;;
37527;SDS011;23372;52.050;4.810;2023-06-10T05:33:56;12.90;;;7.05;;
37527;SDS011;23372;52.050;4.810;2023-06-10T05:36:22;10.52;;;6.47;;
37527;SDS011;23372;52.050;4.810;2023-06-10T05:38:50;11.20;;;6.47;;
37527;SDS011;23372;52.050;4.810;2023-06-10T05:41:15;9.20;;;6.03;;
37527;SDS011;23372;52.050;4.810;2023-06-10T05:43:41;9.95;;;6.25;;
37527;SDS011;23372;52.050;4.810;2023-06-10T05:46:07;11.13;;;5.55;;
37527;SDS011;23372;52.050;4.810;2023-06-10T05:48:32;8.45;;;6.22;;
37527;SDS011;23372;52.050;4.810;2023-06-10T05:50:58;10.63;;;6.07;;
37527;SDS011;23372;52.050;4.810;2023-06-10T05:53:23;13.15;;;6.40;;
37527;SDS011;23372;52.050;4.810;2023-06-10T05:55:49;10.95;;;5.75;;
37527;SDS011;23372;52.050;4.810;2023-06-10T05:58:15;9.45;;;6.00;;
37527;SDS011;23372;52.050;4.810;2023-06-10T06:00:40;8.60;;;5.97;;
37527;SDS011;23372;52.050;4.810;2023-06-10T06:03:09;10.43;;;5.93;;
37527;SDS011;23372;52.050;4.810;2023-06-10T06:05:35;9.73;;;6.03;;
37527;SDS011;23372;52.050;4.810;2023-06-10T06:08:02;14.00;;;5.95;;
37527;SDS011;23372;52.050;4.810;2023-06-10T06:10:31;11.98;;;5.82;;
37527;SDS011;23372;52.050;4.810;2023-06-10T06:12:57;10.75;;;5.80;;
37527;SDS011;23372;52.050;4.810;2023-06-10T06:15:22;16.83;;;6.43;;
37527;SDS011;23372;52.050;4.810;2023-06-10T06:17:48;12.20;;;6.22;;
37527;SDS011;23372;52.050;4.810;2023-06-10T06:20:14;11.27;;;6.35;;
37527;SDS011;23372;52.050;4.810;2023-06-10T06:22:39;10.80;;;6.05;;
37527;SDS011;23372;52.050;4.810;2023-06-10T06:25:05;10.85;;;6.15;;
37527;SDS011;23372;52.050;4.810;2023-06-10T06:27:31;17.98;;;6.22;;
37527;SDS011;23372;52.050;4.810;2023-06-10T06:29:57;6.68;;;5.40;;
37527;SDS011;23372;52.050;4.810;2023-06-10T06:32:22;9.30;;;5.90;;
37527;SDS011;23372;52.050;4.810;2023-06-10T06:34:49;9.65;;;5.85;;
37527;SDS011;23372;52.050;4.810;2023-06-10T06:37:19;13.75;;;5.70;;
37527;SDS011;23372;52.050;4.810;2023-06-10T06:39:49;9.40;;;5.95;;
37527;SDS011;23372;52.050;4.810;2023-06-10T06:42:18;10.15;;;5.60;;
37527;SDS011;23372;52.050;4.810;2023-06-10T06:44:45;12.68;;;5.53;;
37527;SDS011;23372;52.050;4.810;2023-06-10T06:47:11;7.80;;;5.75;;
37527;SDS011;23372;52.050;4.810;2023-06-10T06:49:37;12.88;;;5.90;;
37527;SDS011;23372;52.050;4.810;2023-06-10T06:52:03;8.60;;;5.78;;
37527;SDS011;23372;52.050;4.810;2023-06-10T06:54:29;8.25;;;5.05;;
37527;SDS011;23372;52.050;4.810;2023-06-10T06:56:55;13.70;;;5.57;;
37527;SDS011;23372;52.050;4.810;2023-06-10T06:59:21;11.40;;;5.28;;
37527;SDS011;23372;52.050;4.810;2023-06-10T07:01:46;10.80;;;6.05;;
37527;SDS011;23372;52.050;4.810;2023-06-10T07:04:14;11.75;;;5.57;;
37527;SDS011;23372;52.050;4.810;2023-06-10T07:06:40;9.43;;;5.50;;
37527;SDS011;23372;52.050;4.810;2023-06-10T07:09:07;7.68;;;5.47;;
37527;SDS011;23372;52.050;4.810;2023-06-10T07:11:34;9.57;;;4.93;;
37527;SDS011;23372;52.050;4.810;2023-06-10T07:13:59;9.40;;;5.80;;
37527;SDS011;23372;52.050;4.810;2023-06-10T07:16:25;8.75;;;5.15;;
37527;SDS011;23372;52.050;4.810;2023-06-10T07:18:52;10.23;;;4.72;;
37527;SDS011;23372;52.050;4.810;2023-06-10T07:21:18;10.98;;;5.28;;
37527;SDS011;23372;52.050;4.810;2023-06-10T07:23:43;9.60;;;5.72;;
37527;SDS011;23372;52.050;4.810;2023-06-10T07:26:10;8.52;;;5.57;;
37527;SDS011;23372;52.050;4.810;2023-06-10T07:28:39;7.07;;;5.07;;
37527;SDS011;23372;52.050;4.810;2023-06-10T07:31:05;8.57;;;5.20;;
37527;SDS011;23372;52.050;4.810;2023-06-10T07:33:32;7.68;;;5.13;;
37527;SDS011;23372;52.050;4.810;2023-06-10T07:35:57;9.48;;;5.00;;
37527;SDS011;23372;52.050;4.810;2023-06-10T07:38:24;10.43;;;5.38;;
37527;SDS011;23372;52.050;4.810;2023-06-10T07:40:50;11.68;;;5.70;;
37527;SDS011;23372;52.050;4.810;2023-06-10T07:43:16;10.23;;;5.70;;
37527;SDS011;23372;52.050;4.810;2023-06-10T07:45:42;6.05;;;5.03;;
37527;SDS011;23372;52.050;4.810;2023-06-10T07:48:08;7.88;;;5.38;;
37527;SDS011;23372;52.050;4.810;2023-06-10T07:50:34;10.23;;;5.50;;
37527;SDS011;23372;52.050;4.810;2023-06-10T07:53:00;12.07;;;5.15;;
37527;SDS011;23372;52.050;4.810;2023-06-10T07:55:25;9.70;;;5.13;;
37527;SDS011;23372;52.050;4.810;2023-06-10T07:57:51;7.35;;;5.20;;
37527;SDS011;23372;52.050;4.810;2023-06-10T08:00:17;8.48;;;4.72;;
37527;SDS011;23372;52.050;4.810;2023-06-10T08:02:43;7.07;;;5.05;;
37527;SDS011;23372;52.050;4.810;2023-06-10T08:05:09;10.63;;;4.78;;
37527;SDS011;23372;52.050;4.810;2023-06-10T08:07:35;11.70;;;5.68;;
37527;SDS011;23372;52.050;4.810;2023-06-10T08:10:01;7.38;;;5.45;;
37527;SDS011;23372;52.050;4.810;2023-06-10T08:12:27;11.63;;;5.75;;
37527;SDS011;23372;52.050;4.810;2023-06-10T08:14:53;9.80;;;5.68;;
37527;SDS011;23372;52.050;4.810;2023-06-10T08:17:19;8.50;;;5.35;;
37527;SDS011;23372;52.050;4.810;2023-06-10T08:19:45;8.80;;;5.03;;
37527;SDS011;23372;52.050;4.810;2023-06-10T08:22:11;7.60;;;5.07;;
37527;SDS011;23372;52.050;4.810;2023-06-10T08:24:37;8.13;;;5.15;;
37527;SDS011;23372;52.050;4.810;2023-06-10T08:27:02;14.40;;;6.15;;
37527;SDS011;23372;52.050;4.810;2023-06-10T08:29:28;7.93;;;5.57;;
37527;SDS011;23372;52.050;4.810;2023-06-10T08:31:56;7.68;;;5.43;;
37527;SDS011;23372;52.050;4.810;2023-06-10T08:34:22;11.20;;;6.07;;
37527;SDS011;23372;52.050;4.810;2023-06-10T08:36:47;11.18;;;5.22;;
37527;SDS011;23372;52.050;4.810;2023-06-10T08:39:18;9.48;;;5.53;;
37527;SDS011;23372;52.050;4.810;2023-06-10T08:41:44;8.98;;;5.10;;
37527;SDS011;23372;52.050;4.810;2023-06-10T08:44:32;7.68;;;5.47;;
37527;SDS011;23372;52.050;4.810;2023-06-10T08:47:05;9.70;;;5.22;;
37527;SDS011;23372;52.050;4.810;2023-06-10T08:49:34;11.80;;;5.80;;
37527;SDS011;23372;52.050;4.810;2023-06-10T08:52:03;7.63;;;5.20;;
37527;SDS011;23372;52.050;4.810;2023-06-10T08:54:32;6.78;;;5.03;;
37527;SDS011;23372;52.050;4.810;2023-06-10T08:57:03;9.35;;;5.60;;
37527;SDS011;23372;52.050;4.810;2023-06-10T08:59:31;8.13;;;5.15;;
37527;SDS011;23372;52.050;4.810;2023-06-10T09:01:56;14.90;;;6.00;;
37527;SDS011;23372;52.050;4.810;2023-06-10T09:04:23;10.20;;;5.95;;
37527;SDS011;23372;52.050;4.810;2023-06-10T09:06:49;8.40;;;5.32;;
37527;SDS011;23372;52.050;4.810;2023-06-10T09:09:15;10.40;;;5.85;;
37527;SDS011;23372;52.050;4.810;2023-06-10T09:11:43;7.05;;;4.88;;
37527;SDS011;23372;52.050;4.810;2023-06-10T09:14:09;9.52;;;5.68;;
37527;SDS011;23372;52.050;4.810;2023-06-10T09:16:34;8.25;;;5.32;;
37527;SDS011;23372;52.050;4.810;2023-06-10T09:19:03;8.93;;;5.50;;
37527;SDS011;23372;52.050;4.810;2023-06-10T09:21:32;10.50;;;5.30;;
37527;SDS011;23372;52.050;4.810;2023-06-10T09:23:59;10.48;;;5.35;;
37527;SDS011;23372;52.050;4.810;2023-06-10T09:26:28;9.15;;;5.30;;
37527;SDS011;23372;52.050;4.810;2023-06-10T09:28:57;12.80;;;5.32;;
37527;SDS011;23372;52.050;4.810;2023-06-10T09:31:30;9.38;;;5.63;;
37527;SDS011;23372;52.050;4.810;2023-06-10T09:34:06;9.32;;;5.32;;
37527;SDS011;23372;52.050;4.810;2023-06-10T09:36:37;11.07;;;5.50;;
37527;SDS011;23372;52.050;4.810;2023-06-10T09:39:04;7.53;;;5.53;;
37527;SDS011;23372;52.050;4.810;2023-06-10T09:41:40;11.05;;;5.93;;
37527;SDS011;23372;52.050;4.810;2023-06-10T09:44:18;10.75;;;6.10;;
37527;SDS011;23372;52.050;4.810;2023-06-10T09:46:45;11.48;;;5.95;;
37527;SDS011;23372;52.050;4.810;2023-06-10T09:49:12;21.75;;;6.13;;
37527;SDS011;23372;52.050;4.810;2023-06-10T09:51:38;11.00;;;6.15;;
37527;SDS011;23372;52.050;4.810;2023-06-10T09:54:17;7.72;;;5.63;;
37527;SDS011;23372;52.050;4.810;2023-06-10T09:56:43;11.73;;;6.45;;
37527;SDS011;23372;52.050;4.810;2023-06-10T09:59:19;8.63;;;5.50;;
37527;SDS011;23372;52.050;4.810;2023-06-10T10:01:55;9.00;;;5.35;;
37527;SDS011;23372;52.050;4.810;2023-06-10T10:04:24;10.13;;;5.55;;
37527;SDS011;23372;52.050;4.810;2023-06-10T10:06:50;13.88;;;6.63;;
37527;SDS011;23372;52.050;4.810;2023-06-10T10:09:16;10.38;;;6.05;;
37527;SDS011;23372;52.050;4.810;2023-06-10T10:11:41;10.27;;;5.80;;
37527;SDS011;23372;52.050;4.810;2023-06-10T10:14:09;9.85;;;5.22;;
37527;SDS011;23372;52.050;4.810;2023-06-10T10:16:40;10.23;;;5.63;;
37527;SDS011;23372;52.050;4.810;2023-06-10T10:19:18;7.25;;;4.95;;
37527;SDS011;23372;52.050;4.810;2023-06-10T10:21:54;8.55;;;5.82;;
37527;SDS011;23372;52.050;4.810;2023-06-10T10:24:29;6.88;;;5.68;;
37527;SDS011;23372;52.050;4.810;2023-06-10T10:27:01;9.68;;;5.25;;
37527;SDS011;23372;52.050;4.810;2023-06-10T10:32:05;9.23;;;5.28;;
37527;SDS011;23372;52.050;4.810;2023-06-10T10:34:39;9.48;;;5.07;;
37527;SDS011;23372;52.050;4.810;2023-06-10T10:37:29;10.40;;;5.32;;
37527;SDS011;23372;52.050;4.810;2023-06-10T10:39:55;6.15;;;5.00;;
37527;SDS011;23372;52.050;4.810;2023-06-10T10:42:22;7.28;;;5.68;;
37527;SDS011;23372;52.050;4.810;2023-06-10T10:44:48;7.88;;;5.55;;
37527;SDS011;23372;52.050;4.810;2023-06-10T10:47:15;6.68;;;5.20;;
37527;SDS011;23372;52.050;4.810;2023-06-10T10:49:43;12.95;;;5.47;;
37527;SDS011;23372;52.050;4.810;2023-06-10T10:52:11;8.55;;;5.85;;
37527;SDS011;23372;52.050;4.810;2023-06-10T10:54:37;8.35;;;5.60;;
37527;SDS011;23372;52.050;4.810;2023-06-10T10:57:23;10.35;;;6.00;;
37527;SDS011;23372;52.050;4.810;2023-06-10T11:05:00;7.00;;;5.20;;
37527;SDS011;23372;52.050;4.810;2023-06-10T11:07:26;6.85;;;5.28;;
37527;SDS011;23372;52.050;4.810;2023-06-10T11:09:59;9.85;;;5.88;;
37527;SDS011;23372;52.050;4.810;2023-06-10T11:12:39;9.15;;;5.70;;
37527;SDS011;23372;52.050;4.810;2023-06-10T11:15:06;7.60;;;5.32;;
37527;SDS011;23372;52.050;4.810;2023-06-10T11:17:32;15.07;;;5.43;;
37527;SDS011;23372;52.050;4.810;2023-06-10T11:19:58;7.82;;;5.05;;
37527;SDS011;23372;52.050;4.810;2023-06-10T11:22:24;13.82;;;5.72;;
37527;SDS011;23372;52.050;4.810;2023-06-10T11:24:50;7.70;;;5.70;;
37527;SDS011;23372;52.050;4.810;2023-06-10T11:27:16;6.65;;;5.15;;
37527;SDS011;23372;52.050;4.810;2023-06-10T11:32:31;9.23;;;5.25;;
37527;SDS011;23372;52.050;4.810;2023-06-10T11:34:57;5.72;;;5.03;;
37527;SDS011;23372;52.050;4.810;2023-06-10T11:37:23;9.85;;;5.40;;
37527;SDS011;23372;52.050;4.810;2023-06-10T11:39:55;10.45;;;5.30;;
37527;SDS011;23372;52.050;4.810;2023-06-10T11:42:21;10.68;;;5.40;;
37527;SDS011;23372;52.050;4.810;2023-06-10T11:44:48;10.05;;;5.07;;
37527;SDS011;23372;52.050;4.810;2023-06-10T11:47:18;10.13;;;6.03;;
37527;SDS011;23372;52.050;4.810;2023-06-10T11:49:45;6.28;;;5.60;;
37527;SDS011;23372;52.050;4.810;2023-06-10T11:52:11;9.45;;;4.82;;
37527;SDS011;23372;52.050;4.810;2023-06-10T11:54:37;8.52;;;5.60;;
37527;SDS011;23372;52.050;4.810;2023-06-10T11:57:03;6.78;;;4.85;;
37527;SDS011;23372;52.050;4.810;2023-06-10T11:59:29;7.95;;;5.70;;
37527;SDS011;23372;52.050;4.810;2023-06-10T12:01:55;8.98;;;5.25;;
37527;SDS011;23372;52.050;4.810;2023-06-10T12:04:21;6.43;;;4.75;;
37527;SDS011;23372;52.050;4.810;2023-06-10T12:06:50;8.75;;;5.43;;
37527;SDS011;23372;52.050;4.810;2023-06-10T12:09:23;8.75;;;5.40;;
37527;SDS011;23372;52.050;4.810;2023-06-10T12:17:35;8.45;;;5.60;;
37527;SDS011;23372;52.050;4.810;2023-06-10T12:20:03;9.93;;;5.35;;
37527;SDS011;23372;52.050;4.810;2023-06-10T12:22:41;5.78;;;4.93;;
37527;SDS011;23372;52.050;4.810;2023-06-10T12:25:08;10.27;;;4.93;;
37527;SDS011;23372;52.050;4.810;2023-06-10T12:27:35;8.98;;;5.57;;
37527;SDS011;23372;52.050;4.810;2023-06-10T12:30:02;6.47;;;5.43;;
37527;SDS011;23372;52.050;4.810;2023-06-10T12:35:06;10.65;;;5.38;;
37527;SDS011;23372;52.050;4.810;2023-06-10T12:37:32;7.38;;;5.68;;
37527;SDS011;23372;52.050;4.810;2023-06-10T12:40:02;5.97;;;5.30;;
37527;SDS011;23372;52.050;4.810;2023-06-10T12:42:29;9.15;;;5.03;;
37527;SDS011;23372;52.050;4.810;2023-06-10T12:44:56;8.90;;;5.45;;
37527;SDS011;23372;52.050;4.810;2023-06-10T12:47:34;8.70;;;5.28;;
37527;SDS011;23372;52.050;4.810;2023-06-10T12:50:03;7.78;;;5.05;;
37527;SDS011;23372;52.050;4.810;2023-06-10T12:52:29;7.78;;;4.72;;
37527;SDS011;23372;52.050;4.810;2023-06-10T12:54:55;7.05;;;5.10;;
37527;SDS011;23372;52.050;4.810;2023-06-10T12:57:21;7.38;;;5.13;;
37527;SDS011;23372;52.050;4.810;2023-06-10T12:59:47;6.93;;;5.07;;
37527;SDS011;23372;52.050;4.810;2023-06-10T13:02:20;7.10;;;4.85;;
37527;SDS011;23372;52.050;4.810;2023-06-10T13:04:48;6.30;;;4.95;;
37527;SDS011;23372;52.050;4.810;2023-06-10T13:07:17;9.10;;;5.38;;
37527;SDS011;23372;52.050;4.810;2023-06-10T13:09:43;10.68;;;5.32;;
37527;SDS011;23372;52.050;4.810;2023-06-10T13:12:09;8.45;;;5.45;;
37527;SDS011;23372;52.050;4.810;2023-06-10T13:14:35;9.23;;;5.38;;
37527;SDS011;23372;52.050;4.810;2023-06-10T13:17:03;8.70;;;5.03;;
37527;SDS011;23372;52.050;4.810;2023-06-10T13:19:30;8.25;;;5.03;;
37527;SDS011;23372;52.050;4.810;2023-06-10T13:21:57;6.55;;;5.07;;
37527;SDS011;23372;52.050;4.810;2023-06-10T13:24:22;6.53;;;5.10;;
37527;SDS011;23372;52.050;4.810;2023-06-10T13:26:48;7.13;;;5.15;;
37527;SDS011;23372;52.050;4.810;2023-06-10T13:29:13;6.55;;;5.10;;
37527;SDS011;23372;52.050;4.810;2023-06-10T13:31:40;7.50;;;5.00;;
37527;SDS011;23372;52.050;4.810;2023-06-10T13:34:05;11.35;;;4.95;;
37527;SDS011;23372;52.050;4.810;2023-06-10T13:36:31;9.13;;;5.18;;
37527;SDS011;23372;52.050;4.810;2023-06-10T13:38:57;6.20;;;4.60;;
37527;SDS011;23372;52.050;4.810;2023-06-10T13:41:23;6.50;;;5.43;;
37527;SDS011;23372;52.050;4.810;2023-06-10T13:43:49;6.40;;;4.85;;
37527;SDS011;23372;52.050;4.810;2023-06-10T13:46:15;11.00;;;5.68;;
37527;SDS011;23372;52.050;4.810;2023-06-10T13:48:40;5.78;;;4.85;;
37527;SDS011;23372;52.050;4.810;2023-06-10T13:51:06;6.10;;;4.55;;
37527;SDS011;23372;52.050;4.810;2023-06-10T13:53:32;5.80;;;4.75;;
37527;SDS011;23372;52.050;4.810;2023-06-10T13:55:57;16.08;;;6.97;;
37527;SDS011;23372;52.050;4.810;2023-06-10T13:58:23;7.43;;;5.50;;
37527;SDS011;23372;52.050;4.810;2023-06-10T14:00:48;7.93;;;5.07;;
37527;SDS011;23372;52.050;4.810;2023-06-10T14:03:14;5.95;;;4.88;;
37527;SDS011;23372;52.050;4.810;2023-06-10T14:05:40;6.78;;;5.13;;
37527;SDS011;23372;52.050;4.810;2023-06-10T14:08:05;7.47;;;4.97;;
37527;SDS011;23372;52.050;4.810;2023-06-10T14:10:31;8.30;;;4.80;;
37527;SDS011;23372;52.050;4.810;2023-06-10T14:12:56;7.28;;;4.70;;
37527;SDS011;23372;52.050;4.810;2023-06-10T14:15:22;7.55;;;4.70;;
37527;SDS011;23372;52.050;4.810;2023-06-10T14:17:47;10.55;;;5.07;;
37527;SDS011;23372;52.050;4.810;2023-06-10T14:20:13;7.90;;;5.03;;
37527;SDS011;23372;52.050;4.810;2023-06-10T14:22:39;8.48;;;4.85;;
37527;SDS011;23372;52.050;4.810;2023-06-10T14:25:05;7.60;;;4.70;;
37527;SDS011;23372;52.050;4.810;2023-06-10T14:27:31;6.00;;;4.50;;
37527;SDS011;23372;52.050;4.810;2023-06-10T14:29:56;6.63;;;5.07;;
37527;SDS011;23372;52.050;4.810;2023-06-10T14:32:22;5.32;;;4.60;;
37527;SDS011;23372;52.050;4.810;2023-06-10T14:34:47;7.85;;;5.60;;
37527;SDS011;23372;52.050;4.810;2023-06-10T14:37:13;7.97;;;5.10;;
37527;SDS011;23372;52.050;4.810;2023-06-10T14:39:39;8.85;;;5.30;;
37527;SDS011;23372;52.050;4.810;2023-06-10T14:42:04;8.15;;;4.60;;
37527;SDS011;23372;52.050;4.810;2023-06-10T14:44:31;7.97;;;4.57;;
37527;SDS011;23372;52.050;4.810;2023-06-10T14:46:56;6.75;;;5.38;;
37527;SDS011;23372;52.050;4.810;2023-06-10T14:49:22;5.68;;;4.45;;
37527;SDS011;23372;52.050;4.810;2023-06-10T14:51:47;8.68;;;5.07;;
37527;SDS011;23372;52.050;4.810;2023-06-10T14:54:14;9.32;;;5.15;;
37527;SDS011;23372;52.050;4.810;2023-06-10T14:56:40;7.75;;;5.07;;
37527;SDS011;23372;52.050;4.810;2023-06-10T14:59:06;7.28;;;4.78;;
37527;SDS011;23372;52.050;4.810;2023-06-10T15:01:31;10.25;;;5.40;;